Time;durP1;ratioP1;P1;durP2;ratioP2;P2;SDS_P1;SDS_P2;PMS_P1;PMS_P2;Temp;Humidity;BMP_temperature;BMP_pressure;BME280_temperature;BME280_humidity;BME280_pressure;Samples;Min_cycle;Max_cycle;Signal;HPM_P1;HPM_P2
2021/05/29 00:01:32;;;;;;;;;;;10.00;99.90;;;;;;6244745;22;20329;-79
2021/05/29 00:03:59;;;;;;;;;;;10.10;99.90;;;;;;6194808;23;19919;-79
2021/05/29 00:06:26;;;;;;;;;;;10.10;99.90;;;;;;6194335;23;19981;-80
2021/05/29 00:08:53;;;;;;;;;;;10.10;99.90;;;;;;6194664;23;19919;-78
2021/05/29 00:11:20;;;;;;;;;;;10.10;99.90;;;;;;6269509;22;19920;-79
2021/05/29 00:13:52;;;;;;;;;;;10.00;99.90;;;;;;6243301;23;19989;-79
2021/05/29 00:16:24;;;;;;;;;;;10.00;99.90;;;;;;6269104;22;19927;-79
2021/05/29 00:18:51;;;;;;;;;;;10.00;99.90;;;;;;6219597;23;19919;-80
2021/05/29 00:21:18;;;;;;;;;;;10.00;99.90;;;;;;6244317;22;20003;-79
2021/05/29 00:23:50;;;;;;;;;;;9.90;99.90;;;;;;6219475;23;19923;-79
2021/05/29 00:26:17;;;;;;;;;;;9.90;99.90;;;;;;6270268;22;19924;-79
2021/05/29 00:28:49;;;;;;;;;;;9.90;99.90;;;;;;6194660;23;20025;-79
2021/05/29 00:31:16;;;;;;;;;;;9.90;99.90;;;;;;6219657;23;20332;-78
2021/05/29 00:33:48;;;;;;;;;;;9.90;99.90;;;;;;6243610;23;19919;-79
2021/05/29 00:36:15;;;;;;;;;;;9.90;99.90;;;;;;6244376;23;19919;-79
2021/05/29 00:38:48;;;;;;;;;;;9.90;99.90;;;;;;6243334;23;20010;-79
2021/05/29 00:41:15;;;;;;;;;;;9.80;99.90;;;;;;6244376;23;19943;-79
2021/05/29 00:43:42;;;;;;;;;;;9.80;99.90;;;;;;6194258;23;19923;-78
2021/05/29 00:46:10;;;;;;;;;;;9.80;99.90;;;;;;6244479;23;20002;-79
2021/05/29 00:48:38;;;;;;;;;;;9.80;99.90;;;;;;6194328;23;19978;-79
2021/05/29 00:51:06;;;;;;;;;;;9.80;99.90;;;;;;6194332;23;19993;-79
2021/05/29 00:53:33;;;;;;;;;;;9.80;99.90;;;;;;6244002;22;19942;-79
2021/05/29 00:56:02;;;;;;;;;;;9.80;99.90;;;;;;6244144;23;19947;-79
2021/05/29 00:58:29;;;;;;;;;;;9.80;99.90;;;;;;6270030;22;19966;-79
2021/05/29 01:01:01;;;;;;;;;;;9.90;99.90;;;;;;6218688;23;19966;-79
2021/05/29 01:03:36;;;;;;;;;;;9.90;99.90;;;;;;6242512;22;19923;-79
2021/05/29 01:06:08;;;;;;;;;;;9.80;99.90;;;;;;6218645;23;19947;-78
2021/05/29 01:08:35;;;;;;;;;;;9.80;99.90;;;;;;6269243;22;20010;-79
2021/05/29 01:11:02;;;;;;;;;;;9.80;99.90;;;;;;6218427;23;19927;-78
2021/05/29 01:13:32;;;;;;;;;;;9.70;99.90;;;;;;6243584;22;19920;-79
2021/05/29 01:16:06;;;;;;;;;;;9.70;99.90;;;;;;6245824;23;19951;-79
2021/05/29 01:18:38;;;;;;;;;;;9.70;99.90;;;;;;6218689;23;20323;-79
2021/05/29 01:21:05;;;;;;;;;;;9.80;99.90;;;;;;6269124;22;20328;-79
2021/05/29 01:23:32;;;;;;;;;;;9.70;99.90;;;;;;6243378;22;19935;-79
2021/05/29 01:25:59;;;;;;;;;;;9.80;99.90;;;;;;6218830;23;19981;-79
2021/05/29 01:28:28;;;;;;;;;;;9.70;99.90;;;;;;6244077;23;19969;-79
2021/05/29 01:30:59;;;;;;;;;;;9.70;99.90;;;;;;6269985;22;19920;-78
2021/05/29 01:33:28;;;;;;;;;;;9.70;99.90;;;;;;6218989;23;19919;-79
2021/05/29 01:36:05;;;;;;;;;;;9.70;99.90;;;;;;6194831;23;19982;-79
2021/05/29 01:38:33;;;;;;;;;;;9.60;99.90;;;;;;6246702;23;20264;-79
2021/05/29 01:41:07;;;;;;;;;;;9.50;99.90;;;;;;6248797;23;19919;-79
2021/05/29 01:43:38;;;;;;;;;;;9.60;99.90;;;;;;6249469;22;19926;-79
2021/05/29 01:46:05;;;;;;;;;;;9.50;99.90;;;;;;6197103;23;19927;-79
2021/05/29 01:48:42;;;;;;;;;;;9.50;99.90;;;;;;6269356;22;19919;-79
2021/05/29 01:51:15;;;;;;;;;;;9.60;99.90;;;;;;6242839;23;19920;-79
2021/05/29 01:53:42;;;;;;;;;;;9.70;99.90;;;;;;6269348;22;20255;-79
2021/05/29 01:56:09;;;;;;;;;;;9.70;99.90;;;;;;6193751;23;20488;-79
2021/05/29 01:58:41;;;;;;;;;;;9.60;99.90;;;;;;6243892;23;19985;-79
2021/05/29 02:01:14;;;;;;;;;;;9.70;99.90;;;;;;6194974;23;19954;-79
2021/05/29 02:03:44;;;;;;;;;;;9.70;99.90;;;;;;6243508;22;19924;-78
2021/05/29 02:06:12;;;;;;;;;;;9.70;99.90;;;;;;6219072;23;20310;-79
2021/05/29 02:08:39;;;;;;;;;;;9.70;99.90;;;;;;6269597;22;19994;-79
2021/05/29 02:11:06;;;;;;;;;;;9.70;99.90;;;;;;6243947;22;19935;-79
2021/05/29 02:13:34;;;;;;;;;;;9.70;99.90;;;;;;6243562;22;19927;-79
2021/05/29 02:16:01;;;;;;;;;;;9.70;99.90;;;;;;6243911;23;19920;-79
2021/05/29 02:18:29;;;;;;;;;;;9.70;99.90;;;;;;6243762;23;19920;-79
2021/05/29 02:20:58;;;;;;;;;;;9.70;99.90;;;;;;6269302;22;20341;-79
2021/05/29 02:23:27;;;;;;;;;;;9.70;99.90;;;;;;6193742;23;19943;-79
2021/05/29 02:25:55;;;;;;;;;;;9.80;99.90;;;;;;6218328;23;19927;-79
2021/05/29 02:28:23;;;;;;;;;;;9.70;99.90;;;;;;6244151;22;19994;-79
2021/05/29 02:30:50;;;;;;;;;;;9.70;99.90;;;;;;6243341;23;19920;-79
2021/05/29 02:33:18;;;;;;;;;;;9.60;99.90;;;;;;6243669;22;19950;-79
2021/05/29 02:35:45;;;;;;;;;;;9.60;99.90;;;;;;6195318;23;19923;-79
2021/05/29 02:38:17;;;;;;;;;;;9.60;99.90;;;;;;6244640;23;20002;-79
2021/05/29 02:40:44;;;;;;;;;;;9.60;99.90;;;;;;6245384;23;20300;-79
2021/05/29 02:43:11;;;;;;;;;;;9.60;99.90;;;;;;6245405;22;19919;-79
2021/05/29 02:45:39;;;;;;;;;;;9.60;99.90;;;;;;6245338;23;19930;-79
2021/05/29 02:48:12;;;;;;;;;;;9.60;99.90;;;;;;6220140;23;19920;-79
2021/05/29 02:50:40;;;;;;;;;;;9.60;99.90;;;;;;6270988;22;19919;-79
2021/05/29 02:53:13;;;;;;;;;;;9.60;99.90;;;;;;6220042;23;19920;-79
2021/05/29 02:55:45;;;;;;;;;;;9.60;99.90;;;;;;6244225;23;19969;-79
2021/05/29 02:58:12;;;;;;;;;;;9.50;99.90;;;;;;6220054;23;19926;-79
2021/05/29 03:00:45;;;;;;;;;;;9.50;99.90;;;;;;6196656;23;19919;-79
2021/05/29 03:03:12;;;;;;;;;;;9.50;99.90;;;;;;6245214;22;19939;-79
2021/05/29 03:05:41;;;;;;;;;;;9.50;99.90;;;;;;6245021;23;19920;-79
2021/05/29 03:08:09;;;;;;;;;;;9.50;99.90;;;;;;6245006;23;20352;-79
2021/05/29 03:10:41;;;;;;;;;;;9.50;99.90;;;;;;6220290;23;19919;-79
2021/05/29 03:13:13;;;;;;;;;;;9.50;99.90;;;;;;6219994;23;19919;-79
2021/05/29 03:15:40;;;;;;;;;;;9.50;99.90;;;;;;6244932;23;20264;-78
2021/05/29 03:18:08;;;;;;;;;;;9.50;99.90;;;;;;6244992;23;19924;-78
2021/05/29 03:20:35;;;;;;;;;;;9.50;99.90;;;;;;6245023;23;19919;-78
2021/05/29 03:23:02;;;;;;;;;;;9.40;99.90;;;;;;6244751;22;19926;-79
2021/05/29 03:25:30;;;;;;;;;;;9.40;99.90;;;;;;6195105;23;20347;-79
2021/05/29 03:27:57;;;;;;;;;;;9.40;99.90;;;;;;6244871;23;19947;-79
2021/05/29 03:30:29;;;;;;;;;;;9.40;99.90;;;;;;6269627;22;19926;-81
2021/05/29 03:33:01;;;;;;;;;;;9.40;99.90;;;;;;6219743;23;20323;-78
2021/05/29 03:35:28;;;;;;;;;;;9.40;99.90;;;;;;6219904;23;20006;-79
2021/05/29 03:37:55;;;;;;;;;;;9.40;99.90;;;;;;6244860;23;19943;-79
2021/05/29 03:40:22;;;;;;;;;;;9.40;99.90;;;;;;6195080;23;19919;-79
2021/05/29 03:42:49;;;;;;;;;;;9.40;99.90;;;;;;6244719;22;19919;-79
2021/05/29 03:45:21;;;;;;;;;;;9.30;99.90;;;;;;6243293;23;20303;-79
2021/05/29 03:47:53;;;;;;;;;;;9.30;99.90;;;;;;6243643;23;19920;-79
2021/05/29 03:50:25;;;;;;;;;;;9.40;99.90;;;;;;6219860;23;20396;-80
2021/05/29 03:52:53;;;;;;;;;;;9.40;99.90;;;;;;6244680;22;20002;-79
2021/05/29 03:55:21;;;;;;;;;;;9.40;99.90;;;;;;6244639;23;19920;-79
2021/05/29 03:57:49;;;;;;;;;;;9.40;99.90;;;;;;6244945;23;19924;-79
2021/05/29 04:00:22;;;;;;;;;;;9.40;99.90;;;;;;6219751;23;19920;-79
2021/05/29 04:02:54;;;;;;;;;;;9.40;99.90;;;;;;6243851;22;20267;-79
2021/05/29 04:05:21;;;;;;;;;;;9.40;99.90;;;;;;6244802;23;19926;-79
2021/05/29 04:07:49;;;;;;;;;;;9.40;99.90;;;;;;6194712;23;19927;-79
2021/05/29 04:10:18;;;;;;;;;;;9.50;99.90;;;;;;6244722;23;19926;-79
2021/05/29 04:12:45;;;;;;;;;;;9.40;99.90;;;;;;6244758;22;19919;-79
2021/05/29 04:15:17;;;;;;;;;;;9.40;99.90;;;;;;6243427;23;19920;-79
2021/05/29 04:17:45;;;;;;;;;;;9.40;99.90;;;;;;6244354;23;19919;-79
2021/05/29 04:20:13;;;;;;;;;;;9.40;99.90;;;;;;6244649;23;20379;-79
2021/05/29 04:22:40;;;;;;;;;;;9.40;99.90;;;;;;6194339;23;19930;-79
2021/05/29 04:25:09;;;;;;;;;;;9.50;99.90;;;;;;6244501;23;19954;-79
2021/05/29 04:27:35;;;;;;;;;;;9.50;99.90;;;;;;6244699;23;19920;-79
2021/05/29 04:30:04;;;;;;;;;;;9.50;99.90;;;;;;6244717;23;20272;-79
2021/05/29 04:32:31;;;;;;;;;;;9.60;99.90;;;;;;6244905;22;20256;-78
2021/05/29 04:34:58;;;;;;;;;;;9.50;99.90;;;;;;6270318;22;19927;-78
2021/05/29 04:37:30;;;;;;;;;;;9.60;99.90;;;;;;6243242;23;19926;-79
2021/05/29 04:39:57;;;;;;;;;;;9.60;99.90;;;;;;6269960;22;19920;-79
2021/05/29 04:42:24;;;;;;;;;;;9.60;99.90;;;;;;6244516;22;19943;-79
2021/05/29 04:44:51;;;;;;;;;;;9.60;99.90;;;;;;6194681;23;20376;-79
2021/05/29 04:47:18;;;;;;;;;;;9.60;99.90;;;;;;6219840;23;19924;-78
2021/05/29 04:49:45;;;;;;;;;;;9.70;99.90;;;;;;6249580;23;19926;-80
2021/05/29 04:52:13;;;;;;;;;;;9.80;99.90;;;;;;6198415;23;20289;-79
2021/05/29 04:54:45;;;;;;;;;;;9.80;99.90;;;;;;6247697;23;19923;-80
2021/05/29 04:57:12;;;;;;;;;;;9.90;99.90;;;;;;6195550;23;20000;-78
2021/05/29 04:59:38;;;;;;;;;;;9.90;99.90;;;;;;6244567;23;19943;-78
2021/05/29 05:02:05;;;;;;;;;;;9.90;99.90;;;;;;6194204;23;19925;-79
2021/05/29 05:04:37;;;;;;;;;;;9.90;99.90;;;;;;6243541;23;19919;-79
2021/05/29 05:07:09;;;;;;;;;;;9.90;99.90;;;;;;6195082;23;20344;-79
2021/05/29 05:09:36;;;;;;;;;;;10.00;99.90;;;;;;6194397;23;19926;-79
2021/05/29 05:12:08;;;;;;;;;;;10.10;99.90;;;;;;6218958;23;19927;-79
2021/05/29 05:14:35;;;;;;;;;;;10.10;99.90;;;;;;6269540;22;19970;-79
2021/05/29 05:17:07;;;;;;;;;;;10.20;99.90;;;;;;6268680;22;20347;-79
2021/05/29 05:19:39;;;;;;;;;;;10.30;99.90;;;;;;6243063;23;19999;-78
2021/05/29 05:22:06;;;;;;;;;;;10.30;99.90;;;;;;6194772;23;19919;-78
2021/05/29 05:24:33;;;;;;;;;;;10.40;99.90;;;;;;6270304;22;19919;-78
2021/05/29 05:27:00;;;;;;;;;;;10.50;99.90;;;;;;6219736;23;19919;-80
2021/05/29 05:29:27;;;;;;;;;;;10.50;99.90;;;;;;6270424;22;19923;-79
2021/05/29 05:31:54;;;;;;;;;;;10.50;99.90;;;;;;6245084;22;19969;-79
2021/05/29 05:34:21;;;;;;;;;;;10.50;99.90;;;;;;6219126;23;19927;-79
2021/05/29 05:36:49;;;;;;;;;;;10.60;99.90;;;;;;6219325;23;19934;-78
2021/05/29 05:39:16;;;;;;;;;;;10.60;99.90;;;;;;6244666;23;19919;-78
2021/05/29 05:41:47;;;;;;;;;;;10.70;99.90;;;;;;6269126;22;19985;-79
2021/05/29 05:44:14;;;;;;;;;;;10.70;99.90;;;;;;6244446;23;19985;-78
2021/05/29 05:46:41;;;;;;;;;;;10.80;99.90;;;;;;6244923;22;19920;-78
2021/05/29 05:49:14;;;;;;;;;;;10.90;99.90;;;;;;6243754;23;20263;-80
2021/05/29 05:51:41;;;;;;;;;;;11.00;99.90;;;;;;6194699;22;19947;-78
2021/05/29 05:54:08;;;;;;;;;;;11.00;99.90;;;;;;6244718;22;20157;-79
2021/05/29 05:56:35;;;;;;;;;;;11.10;99.90;;;;;;6194573;23;19920;-79
2021/05/29 05:59:02;;;;;;;;;;;11.10;99.90;;;;;;6219100;23;19920;-81
2021/05/29 06:01:30;;;;;;;;;;;11.20;99.90;;;;;;6219477;22;19926;-79
2021/05/29 06:04:02;;;;;;;;;;;11.20;99.90;;;;;;6220548;23;20332;-78
2021/05/29 06:06:29;;;;;;;;;;;11.20;99.90;;;;;;6244324;23;19919;-78
2021/05/29 06:08:56;;;;;;;;;;;11.30;99.90;;;;;;6194554;23;19927;-78
2021/05/29 06:11:28;;;;;;;;;;;11.40;99.90;;;;;;6221368;22;20304;-78
2021/05/29 06:19:21;;;;;;;;;;;11.60;99.90;;;;;;6221182;23;19923;-79
2021/05/29 06:21:54;;;;;;;;;;;11.60;99.90;;;;;;6225167;23;20395;-78
2021/05/29 06:24:23;;;;;;;;;;;11.60;99.90;;;;;;6196080;23;19979;-78
2021/05/29 06:26:51;;;;;;;;;;;11.60;99.90;;;;;;6246223;23;20340;-78
2021/05/29 06:29:18;;;;;;;;;;;11.70;99.90;;;;;;6220980;23;19923;-79
2021/05/29 06:31:48;;;;;;;;;;;11.80;99.90;;;;;;6245220;22;19920;-79
2021/05/29 06:34:20;;;;;;;;;;;11.90;99.90;;;;;;6245049;23;19920;-79
2021/05/29 06:36:52;;;;;;;;;;;11.90;99.90;;;;;;6220860;23;19920;-79
2021/05/29 06:39:19;;;;;;;;;;;12.00;99.90;;;;;;6271339;22;19943;-78
2021/05/29 06:41:51;;;;;;;;;;;12.10;99.90;;;;;;6244597;22;20360;-79
2021/05/29 06:44:17;;;;;;;;;;;12.20;99.90;;;;;;6247330;23;20371;-78
2021/05/29 06:46:44;;;;;;;;;;;12.30;99.90;;;;;;6245201;23;19926;-79
2021/05/29 06:49:20;;;;;;;;;;;12.40;99.90;;;;;;6270446;22;19924;-79
2021/05/29 06:52:04;;;;;;;;;;;12.50;99.90;;;;;;6271404;22;19919;-79
2021/05/29 06:54:59;;;;;;;;;;;12.70;99.90;;;;;;6220593;23;19919;-79
2021/05/29 07:00:11;;;;;;;;;;;12.90;99.90;;;;;;6220192;23;19931;-78
2021/05/29 07:02:38;;;;;;;;;;;13.00;99.90;;;;;;6220408;23;20299;-79
2021/05/29 07:05:09;;;;;;;;;;;13.10;99.90;;;;;;6195950;23;19958;-79
2021/05/29 07:07:43;;;;;;;;;;;13.20;99.90;;;;;;6244559;23;19962;-78
2021/05/29 07:10:10;;;;;;;;;;;13.30;99.90;;;;;;6245497;23;19926;-78
2021/05/29 07:12:40;;;;;;;;;;;13.30;99.90;;;;;;6245096;22;19920;-80
2021/05/29 07:15:07;;;;;;;;;;;13.40;99.90;;;;;;6220686;23;20336;-79
2021/05/29 07:17:37;;;;;;;;;;;13.50;99.90;;;;;;6245095;23;20255;-79
2021/05/29 07:20:05;;;;;;;;;;;13.60;99.90;;;;;;6245679;22;19927;-79
2021/05/29 07:22:36;;;;;;;;;;;13.60;99.90;;;;;;6244546;22;19930;-79
2021/05/29 07:25:04;;;;;;;;;;;13.70;99.90;;;;;;6245276;23;19920;-79
2021/05/29 07:27:36;;;;;;;;;;;13.80;99.90;;;;;;6245060;22;19947;-79
2021/05/29 07:30:08;;;;;;;;;;;13.80;99.90;;;;;;6246839;22;19919;-79
2021/05/29 07:32:40;;;;;;;;;;;13.90;99.90;;;;;;6244047;22;20233;-79
2021/05/29 07:35:12;;;;;;;;;;;13.90;99.90;;;;;;6196121;23;20000;-79
2021/05/29 07:37:39;;;;;;;;;;;14.00;99.90;;;;;;6245425;22;19931;-78
2021/05/29 07:40:07;;;;;;;;;;;13.90;99.90;;;;;;6244840;23;20370;-79
2021/05/29 07:42:37;;;;;;;;;;;14.00;99.90;;;;;;6198318;23;19947;-79
2021/05/29 07:45:05;;;;;;;;;;;14.00;99.90;;;;;;6196286;23;19951;-79
2021/05/29 07:47:33;;;;;;;;;;;14.00;99.90;;;;;;6219817;23;19926;-79
2021/05/29 07:50:02;;;;;;;;;;;14.10;99.90;;;;;;6219233;23;20340;-79
2021/05/29 07:52:30;;;;;;;;;;;14.10;99.90;;;;;;6220030;23;19970;-79
2021/05/29 07:54:57;;;;;;;;;;;14.10;99.90;;;;;;6270154;22;19950;-79
2021/05/29 07:57:24;;;;;;;;;;;14.20;99.90;;;;;;6244316;23;19920;-80
2021/05/29 07:59:51;;;;;;;;;;;14.30;99.90;;;;;;6223629;23;20002;-80
2021/05/29 08:02:18;;;;;;;;;;;14.40;99.90;;;;;;6275221;22;19930;-80
2021/05/29 08:04:46;;;;;;;;;;;14.50;99.90;;;;;;6224722;23;19919;-79
2021/05/29 08:07:13;;;;;;;;;;;14.60;99.90;;;;;;6272618;22;19985;-79
2021/05/29 08:09:45;;;;;;;;;;;14.70;99.90;;;;;;6220031;23;20257;-79
2021/05/29 08:12:13;;;;;;;;;;;14.80;99.90;;;;;;6244711;22;19919;-79
2021/05/29 08:14:40;;;;;;;;;;;15.00;99.90;;;;;;6194996;23;20451;-79
2021/05/29 08:17:07;;;;;;;;;;;15.10;99.90;;;;;;6244943;23;20292;-79
2021/05/29 08:19:34;;;;;;;;;;;15.10;99.90;;;;;;6195059;23;19919;-79
2021/05/29 08:22:02;;;;;;;;;;;15.10;99.90;;;;;;6270203;22;20003;-79
2021/05/29 08:24:29;;;;;;;;;;;15.20;99.90;;;;;;6194756;23;19994;-79
2021/05/29 08:27:01;;;;;;;;;;;15.40;99.90;;;;;;6269380;22;19974;-79
2021/05/29 08:29:28;;;;;;;;;;;15.40;99.90;;;;;;6194863;23;19920;-79
2021/05/29 08:31:55;;;;;;;;;;;15.40;99.90;;;;;;6244636;22;19919;-79
2021/05/29 08:34:22;;;;;;;;;;;15.40;99.90;;;;;;6195511;23;19920;-79
2021/05/29 08:36:49;;;;;;;;;;;15.40;99.90;;;;;;6244845;23;20324;-79
2021/05/29 08:39:16;;;;;;;;;;;15.50;99.90;;;;;;6244826;23;19970;-79
2021/05/29 08:41:44;;;;;;;;;;;15.60;99.90;;;;;;6245102;23;19994;-79
2021/05/29 08:44:11;;;;;;;;;;;15.70;99.90;;;;;;6195439;23;19919;-79
2021/05/29 08:46:38;;;;;;;;;;;15.80;99.90;;;;;;6244589;23;19920;-79
2021/05/29 08:49:06;;;;;;;;;;;15.80;99.90;;;;;;6242332;23;20244;-79
2021/05/29 08:51:35;;;;;;;;;;;15.80;99.90;;;;;;6242326;22;19926;-79
2021/05/29 08:54:03;;;;;;;;;;;15.80;97.00;;;;;;6242380;23;19994;-79
2021/05/29 08:56:31;;;;;;;;;;;15.90;98.70;;;;;;6193297;23;19920;-80
2021/05/29 08:58:59;;;;;;;;;;;16.00;97.70;;;;;;6193861;23;19920;-79
2021/05/29 09:01:28;;;;;;;;;;;16.00;96.50;;;;;;6242796;22;19919;-80
2021/05/29 09:03:58;;;;;;;;;;;16.00;93.40;;;;;;6243159;23;19944;-80
2021/05/29 09:06:30;;;;;;;;;;;16.00;94.50;;;;;;6241427;23;19998;-79
2021/05/29 09:09:04;;;;;;;;;;;16.10;95.50;;;;;;6217490;23;19985;-79
2021/05/29 09:11:48;;;;;;;;;;;16.20;95.80;;;;;;6241192;22;20241;-79
2021/05/29 09:14:24;;;;;;;;;;;16.30;95.40;;;;;;6241190;23;20295;-79
2021/05/29 09:17:00;;;;;;;;;;;16.30;94.70;;;;;;6217231;23;19926;-79
2021/05/29 09:19:28;;;;;;;;;;;16.40;96.60;;;;;;6242363;23;20300;-79
2021/05/29 09:21:56;;;;;;;;;;;16.50;92.30;;;;;;6242565;22;19942;-79
2021/05/29 09:24:24;;;;;;;;;;;16.60;92.90;;;;;;6242286;23;19920;-79
2021/05/29 09:26:53;;;;;;;;;;;16.60;95.10;;;;;;6266903;22;19919;-79
2021/05/29 09:29:25;;;;;;;;;;;16.80;92.10;;;;;;6241656;23;20352;-79
2021/05/29 09:31:54;;;;;;;;;;;16.80;93.70;;;;;;6243055;22;19927;-79
2021/05/29 09:34:29;;;;;;;;;;;16.80;93.20;;;;;;6242451;23;19927;-79
2021/05/29 09:37:08;;;;;;;;;;;16.90;95.00;;;;;;6245017;23;19923;-80
2021/05/29 09:39:37;;;;;;;;;;;17.10;95.40;;;;;;6243143;23;20340;-80
2021/05/29 09:42:06;;;;;;;;;;;17.10;93.40;;;;;;6242801;22;19920;-80
2021/05/29 09:44:35;;;;;;;;;;;17.10;91.00;;;;;;6243921;23;19923;-79
2021/05/29 09:47:05;;;;;;;;;;;17.10;92.50;;;;;;6243161;23;19927;-80
2021/05/29 09:49:49;;;;;;;;;;;17.20;93.00;;;;;;6245516;23;19920;-80
2021/05/29 09:52:37;;;;;;;;;;;17.20;90.00;;;;;;6219695;23;19930;-80
2021/05/29 09:55:09;;;;;;;;;;;17.40;92.40;;;;;;6244849;23;19919;-80
2021/05/29 09:57:51;;;;;;;;;;;17.60;94.70;;;;;;6244050;23;19919;-80
2021/05/29 10:00:20;;;;;;;;;;;17.80;90.70;;;;;;6244979;23;19924;-80
2021/05/29 10:03:17;;;;;;;;;;;18.00;90.70;;;;;;6244286;22;19919;-80
2021/05/29 10:05:51;;;;;;;;;;;18.00;90.70;;;;;;6217930;23;19924;-79
2021/05/29 10:08:18;;;;;;;;;;;18.00;82.60;;;;;;6245546;23;19973;-80
2021/05/29 10:10:46;;;;;;;;;;;18.00;84.30;;;;;;6269956;22;19920;-80
2021/05/29 10:13:14;;;;;;;;;;;18.10;83.40;;;;;;6244035;22;19991;-79
2021/05/29 10:15:42;;;;;;;;;;;18.40;82.00;;;;;;6244025;23;20398;-80
2021/05/29 10:18:10;;;;;;;;;;;18.40;77.60;;;;;;6244416;23;19954;-80
2021/05/29 10:20:43;;;;;;;;;;;18.30;76.70;;;;;;6219387;23;19926;-80
2021/05/29 10:23:11;;;;;;;;;;;18.10;76.00;;;;;;6244472;22;19954;-79
2021/05/29 10:25:38;;;;;;;;;;;17.90;79.00;;;;;;6244720;23;20303;-80
2021/05/29 10:28:06;;;;;;;;;;;17.70;81.00;;;;;;6243933;23;20020;-79
2021/05/29 10:30:34;;;;;;;;;;;17.40;82.30;;;;;;6244229;23;19920;-80
2021/05/29 10:33:16;;;;;;;;;;;17.20;84.50;;;;;;6244508;22;19919;-79
2021/05/29 10:35:44;;;;;;;;;;;17.10;88.70;;;;;;6244163;23;19926;-80
2021/05/29 10:38:12;;;;;;;;;;;17.00;86.10;;;;;;6243826;23;19919;-79
2021/05/29 10:40:42;;;;;;;;;;;16.90;87.70;;;;;;6220311;23;19924;-79
2021/05/29 10:43:19;;;;;;;;;;;17.10;83.90;;;;;;6243951;22;19990;-79
2021/05/29 10:45:50;;;;;;;;;;;17.40;88.40;;;;;;6244015;23;19919;-80
2021/05/29 10:48:20;;;;;;;;;;;17.40;81.90;;;;;;6219629;23;20359;-80
2021/05/29 10:50:56;;;;;;;;;;;17.30;85.60;;;;;;6244795;23;20317;-79
2021/05/29 10:53:39;;;;;;;;;;;17.10;85.40;;;;;;6219265;23;19974;-79
2021/05/29 10:56:19;;;;;;;;;;;17.10;86.30;;;;;;6218736;23;19920;-79
2021/05/29 10:58:56;;;;;;;;;;;17.20;82.90;;;;;;6218668;23;19924;-79
2021/05/29 11:01:48;;;;;;;;;;;17.40;78.60;;;;;;6218300;22;20405;-79
2021/05/29 11:04:15;;;;;;;;;;;17.60;74.20;;;;;;6218591;23;19920;-79
2021/05/29 11:06:44;;;;;;;;;;;17.70;73.60;;;;;;6245565;23;19919;-79
2021/05/29 11:09:13;;;;;;;;;;;18.00;71.30;;;;;;6243719;23;20002;-79
2021/05/29 11:14:48;;;;;;;;;;;18.30;70.00;;;;;;6217918;23;19919;-79
2021/05/29 11:17:17;;;;;;;;;;;18.30;72.80;;;;;;6240338;23;19947;-79
2021/05/29 11:20:03;;;;;;;;;;;18.50;69.80;;;;;;6243291;23;19934;-79
2021/05/29 11:22:38;;;;;;;;;;;18.50;70.60;;;;;;6218361;23;20002;-79
2021/05/29 11:25:07;;;;;;;;;;;18.30;69.50;;;;;;6245834;23;19930;-80
2021/05/29 11:27:37;;;;;;;;;;;18.30;70.80;;;;;;6246857;23;19919;-80
2021/05/29 11:30:33;;;;;;;;;;;18.40;65.80;;;;;;6252129;23;19927;-81
2021/05/29 11:33:13;;;;;;;;;;;18.40;66.00;;;;;;6251107;22;19920;-80
2021/05/29 11:35:47;;;;;;;;;;;18.30;70.70;;;;;;6246255;23;19942;-81
2021/05/29 11:38:22;;;;;;;;;;;18.20;69.20;;;;;;6247283;23;20348;-81
2021/05/29 11:41:11;;;;;;;;;;;18.30;71.10;;;;;;6247570;23;19954;-81
2021/05/29 11:43:41;;;;;;;;;;;18.60;71.80;;;;;;6249120;22;19919;-81
2021/05/29 11:46:12;;;;;;;;;;;18.80;71.00;;;;;;6246774;23;19920;-80
2021/05/29 11:48:44;;;;;;;;;;;18.80;74.20;;;;;;6272139;22;20383;-82
2021/05/29 11:51:14;;;;;;;;;;;18.70;74.80;;;;;;6246255;23;19919;-81
2021/05/29 11:53:45;;;;;;;;;;;18.80;75.30;;;;;;6245807;22;20372;-81
2021/05/29 11:56:16;;;;;;;;;;;18.70;74.70;;;;;;6271490;22;19920;-80
2021/05/29 11:58:52;;;;;;;;;;;18.70;75.60;;;;;;6246412;23;19921;-80
2021/05/29 12:01:24;;;;;;;;;;;18.60;74.50;;;;;;6245808;23;19920;-80
2021/05/29 12:03:54;;;;;;;;;;;18.50;70.90;;;;;;6196185;23;19919;-81
2021/05/29 12:06:32;;;;;;;;;;;18.40;71.80;;;;;;6244893;23;20268;-81
2021/05/29 12:09:07;;;;;;;;;;;18.30;69.80;;;;;;6244576;23;19919;-80
2021/05/29 12:14:38;;;;;;;;;;;18.40;74.20;;;;;;6186426;23;19943;-81
2021/05/29 12:17:07;;;;;;;;;;;18.50;71.60;;;;;;6185427;23;19924;-81
2021/05/29 12:19:41;;;;;;;;;;;18.50;70.80;;;;;;6186839;23;19920;-81
2021/05/29 12:25:05;;;;;;;;;;;18.70;74.30;;;;;;6217219;23;19995;-82
2021/05/29 12:27:39;;;;;;;;;;;18.70;69.90;;;;;;6215749;23;19966;-81
2021/05/29 12:30:09;;;;;;;;;;;18.60;70.00;;;;;;6219559;23;19942;-82
2021/05/29 12:32:41;;;;;;;;;;;18.50;73.00;;;;;;6216927;23;20345;-82
2021/05/29 12:35:11;;;;;;;;;;;18.60;73.30;;;;;;6191490;23;19920;-81
2021/05/29 12:37:39;;;;;;;;;;;18.90;73.00;;;;;;6191328;23;20407;-82
2021/05/29 12:40:10;;;;;;;;;;;19.20;66.00;;;;;;6192582;23;19926;-82
2021/05/29 12:45:33;;;;;;;;;;;19.80;68.60;;;;;;6137100;23;19927;-82
2021/05/29 12:48:04;;;;;;;;;;;20.00;64.40;;;;;;6113775;23;19948;-82
2021/05/29 12:50:32;;;;;;;;;;;20.00;65.10;;;;;;6136645;23;19948;-82
2021/05/29 12:53:09;;;;;;;;;;;19.90;66.70;;;;;;6156151;23;20273;-82
2021/05/29 12:55:38;;;;;;;;;;;19.80;65.30;;;;;;6166201;23;19999;-82
2021/05/29 12:58:15;;;;;;;;;;;19.60;62.70;;;;;;6140902;23;19943;-82
2021/05/29 13:12:16;;;;;;;;;;;19.40;59.20;;;;;;6246265;22;20410;-81
2021/05/29 13:14:49;;;;;;;;;;;19.60;60.50;;;;;;6197453;23;19926;-80
2021/05/29 13:17:27;;;;;;;;;;;19.90;60.40;;;;;;6196266;23;19926;-81
2021/05/29 13:19:58;;;;;;;;;;;19.90;60.10;;;;;;6197945;23;19942;-81
2021/05/29 13:22:31;;;;;;;;;;;19.60;60.40;;;;;;6223336;23;19920;-82
2021/05/29 13:25:05;;;;;;;;;;;19.40;64.00;;;;;;6199567;23;19927;-82
2021/05/29 13:27:35;;;;;;;;;;;19.30;62.40;;;;;;6221462;23;19963;-81
2021/05/29 13:30:06;;;;;;;;;;;19.20;65.20;;;;;;6195968;23;19947;-81
2021/05/29 13:35:31;;;;;;;;;;;19.30;60.50;;;;;;6233615;22;19966;-80
2021/05/29 13:38:04;;;;;;;;;;;19.80;62.90;;;;;;6221714;23;19919;-80
2021/05/29 13:40:33;;;;;;;;;;;20.10;59.40;;;;;;6195684;23;19920;-81
2021/05/29 13:48:53;;;;;;;;;;;20.60;57.20;;;;;;6245373;22;19942;-82
2021/05/29 13:51:22;;;;;;;;;;;20.80;55.40;;;;;;6197994;22;19970;-81
2021/05/29 13:53:49;;;;;;;;;;;20.70;53.70;;;;;;6248453;23;19919;-82
2021/05/29 13:56:17;;;;;;;;;;;20.40;55.20;;;;;;6222807;23;19944;-81
2021/05/29 13:58:48;;;;;;;;;;;20.20;55.60;;;;;;6246035;23;19946;-81
2021/05/29 14:01:16;;;;;;;;;;;20.00;56.70;;;;;;6221248;23;19930;-81
2021/05/29 14:03:44;;;;;;;;;;;19.80;57.90;;;;;;6245836;22;19919;-81
2021/05/29 14:06:18;;;;;;;;;;;19.60;58.10;;;;;;6244091;23;19942;-80
2021/05/29 14:08:48;;;;;;;;;;;19.40;59.10;;;;;;6244749;23;19920;-81
2021/05/29 14:11:23;;;;;;;;;;;19.30;61.20;;;;;;6245104;23;19923;-80
2021/05/29 14:13:51;;;;;;;;;;;19.20;63.10;;;;;;6195453;23;19919;-81
2021/05/29 14:16:20;;;;;;;;;;;19.10;61.80;;;;;;6245071;23;19920;-80
2021/05/29 14:18:48;;;;;;;;;;;19.10;63.40;;;;;;6244709;23;19998;-81
2021/05/29 14:21:17;;;;;;;;;;;19.30;62.70;;;;;;6245220;23;19947;-81
2021/05/29 14:23:46;;;;;;;;;;;19.60;64.90;;;;;;6228192;22;19942;-81
2021/05/29 14:26:14;;;;;;;;;;;20.10;62.20;;;;;;6196261;23;20289;-81
2021/05/29 14:28:49;;;;;;;;;;;20.50;60.40;;;;;;6197795;23;19930;-81
2021/05/29 14:31:23;;;;;;;;;;;20.70;57.90;;;;;;6198768;23;20251;-81
2021/05/29 14:33:51;;;;;;;;;;;20.90;57.50;;;;;;6168997;23;19927;-82
2021/05/29 14:36:22;;;;;;;;;;;21.10;55.90;;;;;;6193898;23;19927;-81
2021/05/29 14:38:50;;;;;;;;;;;20.90;52.80;;;;;;6192981;23;20324;-81
2021/05/29 14:41:18;;;;;;;;;;;20.70;54.70;;;;;;6192021;23;19920;-81
2021/05/29 14:43:47;;;;;;;;;;;20.60;55.90;;;;;;6217625;23;20059;-81
2021/05/29 14:46:15;;;;;;;;;;;20.70;58.40;;;;;;6217923;23;19994;-81
2021/05/29 14:48:45;;;;;;;;;;;20.80;57.30;;;;;;6192740;23;19943;-81
2021/05/29 14:51:20;;;;;;;;;;;21.00;56.40;;;;;;6217628;23;20238;-81
2021/05/29 14:53:52;;;;;;;;;;;21.00;59.10;;;;;;6193212;23;19923;-82
2021/05/29 14:56:22;;;;;;;;;;;21.10;55.30;;;;;;6192877;23;19970;-82
2021/05/29 14:58:49;;;;;;;;;;;21.00;56.00;;;;;;6167759;23;19954;-81
2021/05/29 15:01:18;;;;;;;;;;;20.70;56.30;;;;;;6167649;23;19951;-82
2021/05/29 15:03:51;;;;;;;;;;;20.50;57.50;;;;;;6192713;23;19927;-81
2021/05/29 15:06:20;;;;;;;;;;;20.90;56.10;;;;;;6217216;23;19995;-81
2021/05/29 15:08:49;;;;;;;;;;;21.20;55.40;;;;;;6192639;23;19923;-81
2021/05/29 15:11:19;;;;;;;;;;;21.60;55.00;;;;;;6192148;23;19931;-81
2021/05/29 15:13:47;;;;;;;;;;;21.70;54.10;;;;;;6217539;23;20349;-81
2021/05/29 15:16:15;;;;;;;;;;;21.70;52.40;;;;;;6192513;23;20322;-82
2021/05/29 15:18:43;;;;;;;;;;;21.90;52.60;;;;;;6192926;23;19924;-81